Time;durP1;ratioP1;P1;durP2;ratioP2;P2;SDS_P1;SDS_P2;PMS_P1;PMS_P2;Temp;Humidity;BMP_temperature;BMP_pressure;BME280_temperature;BME280_humidity;BME280_pressure;Samples;Min_cycle;Max_cycle;Signal;HPM_P1;HPM_P2
2021/03/09 00:00:39;;;;;;;77.33;54.43;;;5.40;99.90;;;;;;5074350;28;20439;-64
2021/03/09 00:03:05;;;;;;;76.57;50.07;;;5.40;99.90;;;;;;5073970;28;20478;-61
2021/03/09 00:05:32;;;;;;;81.17;49.80;;;5.40;99.90;;;;;;5074168;28;20422;-65
2021/03/09 00:07:58;;;;;;;77.20;49.10;;;5.40;99.90;;;;;;5074278;28;20443;-64
2021/03/09 00:10:25;;;;;;;88.53;55.60;;;5.40;99.90;;;;;;5074070;28;20486;-62
2021/03/09 00:12:51;;;;;;;75.10;47.60;;;5.40;99.90;;;;;;5073767;28;20463;-62
2021/03/09 00:15:17;;;;;;;80.97;51.70;;;5.30;99.90;;;;;;5074075;28;20443;-62
2021/03/09 00:17:43;;;;;;;87.13;56.97;;;5.30;99.90;;;;;;5073830;28;21023;-62
2021/03/09 00:20:10;;;;;;;75.63;51.70;;;5.30;99.90;;;;;;5074115;28;20810;-64
2021/03/09 00:22:37;;;;;;;80.10;56.00;;;5.30;99.90;;;;;;5073730;28;20467;-65
2021/03/09 00:25:04;;;;;;;90.07;54.37;;;5.30;99.90;;;;;;5073785;28;20451;-64
2021/03/09 00:27:30;;;;;;;79.07;51.70;;;5.30;99.90;;;;;;5073871;28;21013;-64
2021/03/09 00:29:57;;;;;;;82.17;50.03;;;5.30;99.90;;;;;;5073741;28;20479;-65
2021/03/09 00:32:23;;;;;;;70.57;49.53;;;5.30;99.90;;;;;;5073674;28;20971;-64
2021/03/09 00:34:49;;;;;;;76.17;51.50;;;5.30;99.90;;;;;;5073535;28;20477;-64
2021/03/09 00:37:15;;;;;;;75.40;48.70;;;5.30;99.90;;;;;;5073836;28;20493;-63
2021/03/09 00:39:42;;;;;;;78.60;51.00;;;5.30;99.90;;;;;;5073580;28;20484;-64
2021/03/09 00:42:09;;;;;;;82.10;50.03;;;5.30;99.90;;;;;;5072355;28;20455;-63
2021/03/09 00:44:35;;;;;;;75.80;50.13;;;5.30;99.90;;;;;;5073411;28;20443;-64
2021/03/09 00:47:02;;;;;;;85.87;52.30;;;5.40;99.90;;;;;;5073426;28;20785;-63
2021/03/09 00:49:28;;;;;;;85.27;51.33;;;5.30;99.90;;;;;;5073324;28;20565;-62
2021/03/09 00:51:54;;;;;;;82.90;52.67;;;5.30;99.90;;;;;;5073173;28;20478;-63
2021/03/09 00:54:20;;;;;;;77.87;52.37;;;5.30;99.90;;;;;;5073129;28;20443;-63
2021/03/09 00:56:47;;;;;;;78.53;50.87;;;5.30;99.90;;;;;;5073365;28;20417;-63
2021/03/09 00:59:13;;;;;;;77.63;50.20;;;5.30;99.90;;;;;;5073139;28;20440;-62
2021/03/09 01:01:40;;;;;;;78.20;50.07;;;5.30;99.90;;;;;;5073150;28;20474;-63
2021/03/09 01:04:06;;;;;;;87.57;51.10;;;5.20;99.90;;;;;;5072913;28;20462;-63
2021/03/09 01:06:32;;;;;;;89.17;52.50;;;5.10;99.90;;;;;;5073091;28;20451;-63
2021/03/09 01:08:58;;;;;;;89.23;48.60;;;5.10;99.90;;;;;;5072954;28;20466;-63
2021/03/09 01:11:24;;;;;;;89.60;50.67;;;5.10;99.90;;;;;;5072843;28;20528;-63
2021/03/09 01:13:51;;;;;;;78.40;50.20;;;5.20;99.90;;;;;;5072797;28;20492;-64
2021/03/09 01:16:17;;;;;;;86.37;56.40;;;5.20;99.90;;;;;;5072939;28;20452;-63
2021/03/09 01:18:44;;;;;;;82.80;56.93;;;5.20;99.90;;;;;;5072794;28;20443;-63
2021/03/09 01:21:10;;;;;;;83.13;49.70;;;5.10;99.90;;;;;;5072767;28;20436;-64
2021/03/09 01:23:36;;;;;;;89.27;54.80;;;5.10;99.90;;;;;;5072333;28;20940;-63
2021/03/09 01:26:02;;;;;;;92.00;53.50;;;5.10;99.90;;;;;;5072613;28;20462;-63
2021/03/09 01:28:28;;;;;;;84.17;52.30;;;5.20;99.90;;;;;;5072684;28;20425;-61
2021/03/09 01:30:56;;;;;;;82.37;49.27;;;5.20;99.90;;;;;;5072704;28;20479;-61
2021/03/09 01:33:22;;;;;;;80.30;49.97;;;5.20;99.90;;;;;;5072180;28;20467;-63
2021/03/09 01:35:48;;;;;;;84.90;50.73;;;5.30;99.90;;;;;;5072497;28;20467;-63
2021/03/09 01:38:15;;;;;;;84.03;53.17;;;5.20;99.90;;;;;;5072504;28;20487;-63
2021/03/09 01:40:41;;;;;;;87.17;51.60;;;5.20;99.90;;;;;;5072457;28;20446;-61
2021/03/09 01:43:08;;;;;;;91.00;52.63;;;5.20;99.90;;;;;;5071994;28;20495;-63
2021/03/09 01:45:34;;;;;;;84.67;55.23;;;5.20;99.90;;;;;;5072238;28;20451;-63
2021/03/09 01:48:03;;;;;;;86.53;47.83;;;5.10;99.90;;;;;;5072217;28;20797;-63
2021/03/09 01:50:33;;;;;;;91.80;54.40;;;5.10;99.90;;;;;;5072236;28;20482;-60
2021/03/09 01:53:02;;;;;;;89.10;52.77;;;5.10;99.90;;;;;;5071522;28;20479;-63
2021/03/09 01:55:29;;;;;;;93.63;52.47;;;5.20;99.90;;;;;;5072115;28;20444;-63
2021/03/09 01:57:57;;;;;;;79.43;50.67;;;5.10;99.90;;;;;;5072147;28;20462;-62
2021/03/09 02:00:23;;;;;;;94.37;52.60;;;5.20;99.90;;;;;;5072008;28;20431;-61
2021/03/09 02:02:50;;;;;;;95.73;55.43;;;5.10;99.90;;;;;;5071734;28;20472;-61
2021/03/09 02:05:17;;;;;;;92.10;56.90;;;5.10;99.90;;;;;;5072013;28;20447;-63
2021/03/09 02:07:43;;;;;;;89.43;52.50;;;5.10;99.90;;;;;;5072130;28;20452;-63
2021/03/09 02:10:13;;;;;;;84.93;53.80;;;5.10;99.90;;;;;;5071887;28;20475;-62
2021/03/09 02:12:55;;;;;;;82.97;52.73;;;5.10;99.90;;;;;;5071799;28;20463;-62
2021/03/09 02:15:32;;;;;;;84.20;54.37;;;5.10;99.90;;;;;;5071831;28;20443;-63
2021/03/09 02:18:03;;;;;;;85.80;53.40;;;5.10;99.90;;;;;;5071904;28;20500;-63
2021/03/09 02:21:02;;;;;;;87.43;52.87;;;5.10;99.90;;;;;;5071745;28;20917;-63
2021/03/09 02:24:01;;;;;;;80.17;48.53;;;5.10;99.90;;;;;;5071644;28;20447;-62
2021/03/09 02:26:51;;;;;;;94.17;52.93;;;5.10;99.90;;;;;;5071800;28;20446;-62
2021/03/09 02:29:35;;;;;;;93.77;53.07;;;5.10;99.90;;;;;;5071636;28;20932;-60
2021/03/09 02:32:05;;;;;;;87.97;52.73;;;5.10;99.90;;;;;;5071631;28;20459;-63
2021/03/09 02:34:45;;;;;;;82.20;51.13;;;5.10;99.90;;;;;;5071514;28;20948;-61
2021/03/09 02:37:13;;;;;;;93.73;54.83;;;5.10;99.90;;;;;;5071672;28;20517;-62
2021/03/09 02:39:44;;;;;;;73.97;50.90;;;5.00;99.90;;;;;;5071533;28;20446;-61
2021/03/09 02:42:12;;;;;;;77.37;47.87;;;5.00;99.90;;;;;;5071552;28;20467;-63
2021/03/09 02:44:40;;;;;;;83.90;50.10;;;5.00;99.90;;;;;;5071309;28;20484;-63
2021/03/09 02:47:09;;;;;;;98.50;50.73;;;5.00;99.90;;;;;;5071266;28;20448;-63
2021/03/09 02:49:40;;;;;;;88.70;51.10;;;5.10;99.90;;;;;;5071401;28;20803;-61
2021/03/09 02:52:07;;;;;;;78.20;48.50;;;5.10;99.90;;;;;;5071267;28;20554;-64
2021/03/09 02:54:36;;;;;;;89.10;51.30;;;5.10;99.90;;;;;;5071237;28;20439;-62
2021/03/09 02:57:05;;;;;;;90.10;53.17;;;5.10;99.90;;;;;;5071649;28;20445;-62
2021/03/09 02:59:34;;;;;;;84.00;50.50;;;5.10;99.90;;;;;;5071575;28;21061;-62
2021/03/09 03:02:01;;;;;;;83.27;51.10;;;5.10;99.90;;;;;;5071433;28;20464;-63
2021/03/09 03:04:30;;;;;;;87.07;51.00;;;5.10;99.90;;;;;;5072437;28;20447;-62
2021/03/09 03:06:58;;;;;;;79.97;50.40;;;5.10;99.90;;;;;;5075689;28;20454;-63
2021/03/09 03:09:25;;;;;;;92.63;50.47;;;5.10;99.90;;;;;;5075571;28;20504;-63
2021/03/09 03:11:53;;;;;;;76.30;48.33;;;5.10;99.90;;;;;;5075490;28;20455;-64
2021/03/09 03:14:22;;;;;;;87.77;49.30;;;5.10;99.90;;;;;;5075173;28;20447;-63
2021/03/09 03:16:50;;;;;;;89.27;56.63;;;5.00;99.90;;;;;;5075520;28;20439;-63
2021/03/09 03:19:20;;;;;;;88.30;52.17;;;5.10;99.90;;;;;;5075460;28;20500;-61
2021/03/09 03:21:48;;;;;;;91.60;50.37;;;5.00;99.90;;;;;;5075193;28;20469;-62
2021/03/09 03:24:16;;;;;;;76.03;47.73;;;5.10;99.90;;;;;;5075108;28;20497;-64
2021/03/09 03:26:45;;;;;;;72.87;48.37;;;5.10;99.90;;;;;;5075304;28;20439;-64
2021/03/09 03:29:12;;;;;;;74.53;50.70;;;5.10;99.90;;;;;;5075321;28;20445;-62
2021/03/09 03:31:39;;;;;;;75.77;50.77;;;5.10;99.90;;;;;;5074940;28;20482;-63
2021/03/09 03:34:05;;;;;;;73.40;50.17;;;5.10;99.90;;;;;;5074921;28;20443;-63
2021/03/09 03:36:32;;;;;;;75.07;50.00;;;5.10;99.90;;;;;;5075054;28;20439;-63
2021/03/09 03:38:59;;;;;;;75.43;47.83;;;5.20;99.90;;;;;;5075140;28;20454;-63
2021/03/09 03:41:26;;;;;;;77.00;46.13;;;5.20;99.90;;;;;;5074710;28;20458;-61
2021/03/09 03:43:52;;;;;;;74.50;46.27;;;5.20;99.90;;;;;;5074782;28;20450;-63
2021/03/09 03:46:19;;;;;;;73.77;46.77;;;5.20;99.90;;;;;;5074716;28;20508;-60
2021/03/09 03:48:46;;;;;;;72.47;46.97;;;5.10;99.90;;;;;;5074920;28;20928;-62
2021/03/09 03:51:15;;;;;;;79.50;45.90;;;5.10;99.90;;;;;;5074435;28;21008;-62
2021/03/09 03:53:50;;;;;;;63.30;44.60;;;5.10;99.90;;;;;;5075013;28;20447;-64
2021/03/09 03:56:35;;;;;;;61.47;44.23;;;5.10;99.90;;;;;;5074762;28;20785;-65
2021/03/09 03:59:06;;;;;;;64.90;44.97;;;5.00;99.90;;;;;;5074586;28;20486;-64
2021/03/09 04:01:35;;;;;;;58.53;44.33;;;5.00;99.90;;;;;;5074598;28;20532;-65
2021/03/09 04:04:06;;;;;;;73.80;48.77;;;5.10;99.90;;;;;;5074260;28;20439;-64
2021/03/09 04:06:33;;;;;;;74.27;47.23;;;5.10;99.90;;;;;;5074501;28;20443;-64
2021/03/09 04:09:04;;;;;;;70.63;47.80;;;5.10;99.90;;;;;;5074340;28;20443;-64
2021/03/09 04:11:31;;;;;;;67.33;45.53;;;5.00;99.90;;;;;;5073771;28;21010;-64
2021/03/09 04:13:58;;;;;;;76.67;48.80;;;4.90;99.90;;;;;;5074081;28;20451;-63
2021/03/09 04:16:26;;;;;;;69.47;48.90;;;4.90;99.90;;;;;;5074218;28;21244;-64
2021/03/09 04:18:53;;;;;;;70.17;51.83;;;4.80;99.90;;;;;;5074277;28;20443;-65
2021/03/09 04:21:20;;;;;;;80.33;51.70;;;4.80;99.90;;;;;;5074027;28;20439;-65
2021/03/09 04:23:47;;;;;;;75.93;52.37;;;4.70;99.90;;;;;;5074055;28;20443;-64
2021/03/09 04:26:14;;;;;;;75.97;49.30;;;4.70;99.90;;;;;;5074067;28;20451;-64
2021/03/09 04:28:41;;;;;;;68.07;46.63;;;4.70;99.90;;;;;;5074061;28;20465;-64
2021/03/09 04:31:08;;;;;;;85.50;52.50;;;4.70;99.90;;;;;;5073941;28;20521;-65
2021/03/09 04:33:34;;;;;;;67.87;48.00;;;4.70;99.90;;;;;;5073824;28;20478;-64
2021/03/09 04:36:02;;;;;;;81.90;51.13;;;4.70;99.90;;;;;;5073926;28;20443;-64
2021/03/09 04:38:30;;;;;;;78.33;49.27;;;4.70;99.90;;;;;;5073910;28;20469;-65
2021/03/09 04:40:57;;;;;;;86.13;53.40;;;4.80;99.90;;;;;;5073872;28;20444;-65
2021/03/09 04:43:23;;;;;;;84.53;52.97;;;4.70;99.90;;;;;;5073378;28;20430;-64
2021/03/09 04:45:50;;;;;;;74.83;48.57;;;4.70;99.90;;;;;;5073703;28;20440;-65
2021/03/09 04:48:17;;;;;;;90.20;53.27;;;4.70;99.90;;;;;;5073832;28;20448;-65
2021/03/09 04:50:45;;;;;;;85.10;51.77;;;4.70;99.90;;;;;;5073556;28;21014;-63
2021/03/09 04:53:12;;;;;;;80.53;55.87;;;4.70;99.90;;;;;;5073223;28;20509;-64
2021/03/09 04:55:39;;;;;;;86.23;57.10;;;4.70;99.90;;;;;;5073515;28;20450;-65
2021/03/09 04:58:05;;;;;;;102.67;59.53;;;4.70;99.90;;;;;;5073602;28;20443;-65
2021/03/09 05:00:31;;;;;;;75.90;52.07;;;4.70;99.90;;;;;;5073455;28;20435;-65
2021/03/09 05:02:58;;;;;;;84.10;52.93;;;4.70;99.90;;;;;;5073101;28;20467;-65
2021/03/09 05:05:25;;;;;;;81.40;47.97;;;4.70;99.90;;;;;;5073181;28;20443;-64
2021/03/09 05:07:52;;;;;;;77.00;49.57;;;4.70;99.90;;;;;;5073363;28;21001;-64
2021/03/09 05:10:19;;;;;;;76.93;50.40;;;4.60;99.90;;;;;;5073145;28;20483;-64
2021/03/09 05:12:47;;;;;;;80.80;54.00;;;4.60;99.90;;;;;;5073033;28;20826;-65
2021/03/09 05:15:13;;;;;;;81.10;57.20;;;4.50;99.90;;;;;;5073191;28;20443;-65
2021/03/09 05:17:39;;;;;;;85.93;53.17;;;4.50;99.90;;;;;;5073195;28;20414;-64
2021/03/09 05:20:09;;;;;;;79.93;51.07;;;4.50;99.90;;;;;;5073093;28;20439;-65
2021/03/09 05:22:36;;;;;;;83.40;51.40;;;4.50;99.90;;;;;;5072976;28;20475;-65
2021/03/09 05:25:02;;;;;;;76.80;49.20;;;4.50;99.90;;;;;;5072833;28;20446;-65
2021/03/09 05:27:28;;;;;;;83.23;52.60;;;4.40;99.90;;;;;;5072319;28;20447;-65
2021/03/09 05:29:55;;;;;;;80.53;51.40;;;4.50;99.90;;;;;;5072839;28;20454;-64
2021/03/09 05:32:21;;;;;;;76.90;51.00;;;4.40;99.90;;;;;;5072546;28;21022;-64
2021/03/09 05:34:47;;;;;;;83.90;55.13;;;4.40;99.90;;;;;;5072640;28;20924;-64
2021/03/09 05:37:14;;;;;;;79.07;49.80;;;4.40;99.90;;;;;;5072722;28;20450;-64
2021/03/09 05:39:40;;;;;;;79.37;51.57;;;4.40;99.90;;;;;;5072644;28;20528;-64
2021/03/09 05:42:08;;;;;;;75.13;50.13;;;4.40;99.90;;;;;;5071708;28;20463;-64
2021/03/09 05:44:37;;;;;;;75.27;49.47;;;4.40;99.90;;;;;;5071161;28;20444;-64
2021/03/09 05:47:04;;;;;;;72.70;46.20;;;4.40;99.90;;;;;;5071193;28;20589;-64
2021/03/09 05:49:30;;;;;;;73.80;47.07;;;4.40;99.90;;;;;;5071455;28;20447;-62
2021/03/09 05:51:57;;;;;;;78.80;49.80;;;4.40;99.90;;;;;;5071331;28;20487;-63
2021/03/09 05:54:24;;;;;;;81.40;50.20;;;4.40;99.90;;;;;;5072053;28;20940;-62
2021/03/09 05:56:51;;;;;;;64.87;45.43;;;4.40;99.90;;;;;;5072139;28;20446;-63
2021/03/09 05:59:17;;;;;;;70.57;48.60;;;4.40;99.90;;;;;;5072196;28;20443;-64
2021/03/09 06:01:44;;;;;;;71.43;46.97;;;4.40;99.90;;;;;;5072020;28;20468;-64
2021/03/09 06:04:10;;;;;;;81.73;48.60;;;4.50;99.90;;;;;;5071765;28;20841;-63
2021/03/09 06:06:36;;;;;;;80.37;48.80;;;4.50;99.90;;;;;;5072160;28;20447;-63
2021/03/09 06:09:36;;;;;;;74.30;48.70;;;4.50;99.90;;;;;;5072225;28;20447;-62
2021/03/09 06:12:17;;;;;;;70.40;45.43;;;4.50;99.90;;;;;;5071891;28;20486;-63
2021/03/09 06:14:45;;;;;;;73.63;44.07;;;4.50;99.90;;;;;;5071918;28;20447;-63
2021/03/09 06:17:13;;;;;;;72.60;45.40;;;4.50;99.90;;;;;;5071839;28;20465;-63
2021/03/09 06:19:44;;;;;;;70.67;46.27;;;4.50;99.90;;;;;;5071686;28;20447;-63
2021/03/09 06:22:14;;;;;;;69.03;45.20;;;4.50;99.90;;;;;;5071613;28;20471;-61
2021/03/09 06:24:41;;;;;;;67.47;45.70;;;4.50;99.90;;;;;;5071905;28;20450;-63
2021/03/09 06:27:24;;;;;;;66.20;42.90;;;4.50;99.90;;;;;;5071764;28;20440;-64
2021/03/09 06:29:50;;;;;;;69.60;45.33;;;4.50;99.90;;;;;;5071691;28;20451;-63
2021/03/09 06:32:17;;;;;;;60.00;42.13;;;4.50;99.90;;;;;;5071437;28;20467;-63
2021/03/09 06:34:43;;;;;;;59.93;42.47;;;4.50;99.90;;;;;;5071520;28;20451;-63
2021/03/09 06:37:12;;;;;;;70.87;44.67;;;4.50;99.90;;;;;;5071625;28;20936;-63
2021/03/09 06:39:51;;;;;;;58.17;41.00;;;4.50;99.90;;;;;;5070585;28;20443;-63
2021/03/09 06:42:18;;;;;;;60.67;44.43;;;4.60;99.90;;;;;;5071289;28;20604;-63
2021/03/09 06:44:49;;;;;;;63.57;44.00;;;4.60;99.90;;;;;;5071261;28;20944;-63
2021/03/09 06:47:16;;;;;;;73.97;45.43;;;4.50;99.90;;;;;;5071727;28;20450;-63
2021/03/09 06:49:50;;;;;;;62.13;42.10;;;4.50;99.90;;;;;;5071517;28;20956;-62
2021/03/09 06:52:16;;;;;;;70.50;43.87;;;4.60;99.90;;;;;;5071144;28;20474;-65
2021/03/09 06:54:44;;;;;;;67.90;43.27;;;4.60;99.90;;;;;;5071156;28;20439;-64
2021/03/09 06:57:11;;;;;;;57.27;44.70;;;4.60;99.90;;;;;;5071303;28;20443;-62
2021/03/09 06:59:41;;;;;;;62.27;42.03;;;4.60;99.90;;;;;;5071202;28;20942;-64
2021/03/09 07:02:08;;;;;;;61.07;46.20;;;4.70;99.90;;;;;;5071267;28;20466;-64
2021/03/09 07:04:36;;;;;;;62.03;38.33;;;4.70;99.90;;;;;;5071260;28;20439;-64
2021/03/09 07:07:02;;;;;;;63.50;45.73;;;4.70;99.90;;;;;;5071184;28;20439;-62
2021/03/09 07:09:29;;;;;;;66.10;43.23;;;4.70;99.90;;;;;;5071321;28;20932;-63
2021/03/09 07:11:55;;;;;;;58.60;42.07;;;4.70;99.90;;;;;;5071152;28;20479;-64
2021/03/09 07:14:23;;;;;;;62.90;42.30;;;4.70;99.90;;;;;;5070961;28;20446;-64
2021/03/09 07:16:51;;;;;;;56.70;39.53;;;4.70;99.90;;;;;;5071155;28;20454;-64
2021/03/09 07:19:24;;;;;;;54.27;39.23;;;4.70;99.90;;;;;;5071227;28;20966;-64
2021/03/09 07:21:51;;;;;;;62.80;44.03;;;4.70;99.90;;;;;;5071201;28;20497;-65
2021/03/09 07:24:20;;;;;;;60.23;43.87;;;4.70;99.90;;;;;;5070809;28;20447;-64
2021/03/09 07:26:48;;;;;;;68.00;43.87;;;4.80;99.90;;;;;;5071017;28;20422;-62
2021/03/09 07:29:17;;;;;;;63.47;42.03;;;4.70;99.90;;;;;;5071083;28;20550;-64
2021/03/09 07:31:49;;;;;;;65.60;41.87;;;4.70;99.90;;;;;;5070791;28;20486;-64
2021/03/09 07:34:17;;;;;;;55.60;42.00;;;4.70;99.90;;;;;;5070704;28;20439;-64
2021/03/09 07:36:43;;;;;;;66.90;43.20;;;4.80;99.90;;;;;;5070900;28;20809;-64
2021/03/09 07:39:10;;;;;;;60.97;41.80;;;4.80;99.90;;;;;;5070990;28;20469;-65
2021/03/09 07:41:37;;;;;;;71.70;45.53;;;4.80;99.90;;;;;;5070690;28;20470;-62
2021/03/09 07:44:04;;;;;;;59.73;43.10;;;4.90;99.90;;;;;;5070655;28;20447;-64
2021/03/09 07:46:31;;;;;;;58.20;44.40;;;4.90;99.90;;;;;;5070831;28;20447;-62
2021/03/09 07:48:58;;;;;;;59.23;41.77;;;4.90;99.90;;;;;;5070812;28;20461;-64
2021/03/09 07:51:25;;;;;;;64.03;42.47;;;4.90;99.90;;;;;;5073093;28;20494;-64
2021/03/09 07:54:10;;;;;;;59.50;45.90;;;5.00;99.90;;;;;;5074251;28;20473;-63
2021/03/09 07:56:37;;;;;;;62.07;42.27;;;5.00;99.90;;;;;;5074402;28;20450;-64
2021/03/09 07:59:07;;;;;;;65.67;45.00;;;5.00;99.90;;;;;;5074391;28;20446;-64
2021/03/09 08:01:46;;;;;;;60.73;44.60;;;5.00;99.90;;;;;;5074396;28;20790;-64
2021/03/09 08:04:13;;;;;;;59.30;43.60;;;5.00;99.90;;;;;;5074085;28;20445;-64
2021/03/09 08:06:43;;;;;;;61.40;44.50;;;5.00;99.90;;;;;;5074241;28;20444;-64
2021/03/09 08:09:33;;;;;;;63.40;45.83;;;5.00;99.90;;;;;;5074099;28;20443;-64
2021/03/09 08:11:59;;;;;;;56.60;43.77;;;5.10;99.90;;;;;;5073927;28;20482;-64
2021/03/09 08:14:26;;;;;;;54.37;40.90;;;5.10;99.90;;;;;;5074026;28;20443;-64
2021/03/09 08:16:53;;;;;;;58.20;43.00;;;5.20;99.90;;;;;;5074207;28;20466;-64
2021/03/09 08:19:42;;;;;;;56.93;41.87;;;5.20;99.90;;;;;;5074203;28;20822;-63
2021/03/09 08:22:09;;;;;;;52.90;43.00;;;5.20;99.90;;;;;;5073932;28;20462;-63
2021/03/09 08:24:57;;;;;;;57.80;43.40;;;5.20;99.90;;;;;;5073770;28;20439;-64
2021/03/09 08:27:36;;;;;;;58.37;43.33;;;5.20;99.90;;;;;;5073931;28;20450;-64
2021/03/09 08:30:29;;;;;;;60.50;45.53;;;5.20;99.90;;;;;;5073649;28;20449;-64
2021/03/09 08:33:31;;;;;;;51.90;41.30;;;5.30;99.90;;;;;;5073664;28;20933;-64
2021/03/09 08:35:59;;;;;;;58.03;42.93;;;5.30;99.90;;;;;;5069822;28;20450;-64
2021/03/09 08:38:26;;;;;;;54.33;39.83;;;5.30;99.90;;;;;;5073558;28;20443;-64
2021/03/09 08:41:04;;;;;;;53.30;40.10;;;5.30;99.90;;;;;;5073598;28;20443;-64
2021/03/09 08:43:31;;;;;;;59.23;43.00;;;5.30;99.90;;;;;;5073344;28;20438;-64
2021/03/09 08:45:58;;;;;;;57.40;42.80;;;5.40;99.90;;;;;;5072196;28;20496;-64
2021/03/09 08:48:54;;;;;;;50.97;37.70;;;5.40;99.90;;;;;;5073506;28;20446;-64
2021/03/09 08:51:49;;;;;;;53.23;41.83;;;5.40;99.90;;;;;;5073218;28;22336;-64
2021/03/09 08:54:37;;;;;;;52.57;39.23;;;5.30;99.90;;;;;;5073192;28;20442;-63
2021/03/09 08:57:06;;;;;;;52.27;40.50;;;5.30;99.90;;;;;;5073315;28;20450;-62
2021/03/09 08:59:33;;;;;;;56.50;42.53;;;5.20;99.90;;;;;;5073483;28;20850;-64
2021/03/09 09:02:04;;;;;;;48.27;39.27;;;5.10;99.90;;;;;;5072357;28;20452;-64
2021/03/09 09:04:31;;;;;;;55.23;43.57;;;5.10;99.90;;;;;;5073018;28;20466;-64
2021/03/09 09:06:58;;;;;;;51.97;39.13;;;5.10;99.90;;;;;;5073069;28;20447;-63
2021/03/09 09:09:34;;;;;;;51.73;41.10;;;5.10;99.90;;;;;;5073176;28;20481;-64
2021/03/09 09:12:19;;;;;;;52.70;41.37;;;5.00;99.90;;;;;;5072979;28;20478;-64
2021/03/09 09:14:45;;;;;;;57.40;42.50;;;5.10;99.90;;;;;;5072950;28;20452;-64
2021/03/09 09:17:11;;;;;;;57.00;42.80;;;5.10;99.90;;;;;;5073114;28;20446;-63
2021/03/09 09:19:37;;;;;;;55.03;41.27;;;5.10;99.90;;;;;;5072957;28;20493;-64
2021/03/09 09:22:05;;;;;;;51.40;37.90;;;5.10;99.90;;;;;;5072581;28;20470;-64
2021/03/09 09:24:31;;;;;;;50.10;38.40;;;5.10;99.90;;;;;;5072614;28;20443;-64
2021/03/09 09:26:59;;;;;;;47.83;37.53;;;5.10;99.90;;;;;;5072857;28;20478;-64
2021/03/09 09:29:26;;;;;;;47.53;38.50;;;5.10;99.90;;;;;;5072742;28;20443;-64
2021/03/09 09:31:59;;;;;;;50.53;37.87;;;5.10;99.90;;;;;;5072325;28;20495;-64
2021/03/09 09:34:38;;;;;;;43.07;36.37;;;5.10;99.90;;;;;;5072474;28;20443;-65
2021/03/09 09:37:13;;;;;;;51.80;38.10;;;5.20;99.90;;;;;;5072541;28;20809;-64
2021/03/09 09:39:40;;;;;;;45.83;39.27;;;5.30;99.90;;;;;;5072412;28;20461;-65
2021/03/09 09:42:16;;;;;;;48.50;39.10;;;5.30;99.90;;;;;;5072223;28;20462;-64
2021/03/09 09:44:42;;;;;;;50.80;36.07;;;5.30;99.90;;;;;;5072197;28;20439;-64
2021/03/09 09:47:10;;;;;;;44.67;35.00;;;5.20;99.90;;;;;;5072494;28;20738;-64
2021/03/09 09:49:38;;;;;;;45.67;34.93;;;5.30;99.90;;;;;;5072255;28;20443;-65
2021/03/09 09:52:19;;;;;;;41.97;34.07;;;5.20;99.90;;;;;;5092815;22;20837;-66
2021/03/09 09:54:53;;;;;;;38.20;33.47;;;5.20;99.90;;;;;;5053646;28;20443;-66
2021/03/09 09:57:20;;;;;;;40.77;31.27;;;5.40;99.90;;;;;;5052737;28;20451;-65
2021/03/09 09:59:46;;;;;;;42.90;35.10;;;5.40;99.90;;;;;;5053248;28;20448;-67
2021/03/09 10:02:20;;;;;;;45.33;35.20;;;5.40;99.90;;;;;;5053471;28;20449;-67
2021/03/09 10:04:47;;;;;;;41.93;33.90;;;5.30;99.90;;;;;;5053210;28;20957;-67
2021/03/09 10:07:15;;;;;;;45.73;35.83;;;5.30;99.90;;;;;;5053259;28;20451;-65
2021/03/09 10:09:58;;;;;;;45.93;38.17;;;5.40;99.90;;;;;;5053901;28;20447;-66
2021/03/09 10:12:33;;;;;;;45.70;36.73;;;5.40;99.90;;;;;;5053203;28;20483;-66
2021/03/09 10:14:59;;;;;;;46.90;36.20;;;5.40;99.90;;;;;;5053318;28;20447;-67
2021/03/09 10:17:25;;;;;;;48.63;34.87;;;5.40;99.90;;;;;;5053340;28;20865;-67
2021/03/09 10:19:52;;;;;;;43.87;34.97;;;5.40;99.90;;;;;;5053404;28;20809;-67
2021/03/09 10:22:21;;;;;;;44.63;34.60;;;5.40;99.90;;;;;;5053429;28;20876;-67
2021/03/09 10:24:48;;;;;;;44.63;36.67;;;5.50;99.90;;;;;;5053016;28;20444;-67
2021/03/09 10:27:15;;;;;;;47.03;36.90;;;5.50;99.90;;;;;;5053238;28;20813;-65
2021/03/09 10:29:41;;;;;;;49.93;38.43;;;5.50;99.90;;;;;;5052038;28;20956;-67
2021/03/09 10:32:14;;;;;;;49.57;37.77;;;5.50;99.90;;;;;;5052381;28;20476;-67
2021/03/09 10:34:42;;;;;;;50.03;39.83;;;5.60;99.90;;;;;;5052167;28;20466;-66
2021/03/09 10:37:10;;;;;;;52.23;39.93;;;5.70;99.90;;;;;;5052473;28;20446;-65
2021/03/09 10:39:39;;;;;;;55.43;41.10;;;5.70;99.90;;;;;;5052585;28;20523;-66
2021/03/09 10:42:24;;;;;;;53.27;40.80;;;5.70;99.90;;;;;;5052533;28;20460;-66
2021/03/09 10:44:51;;;;;;;53.17;41.80;;;5.80;99.90;;;;;;5052418;28;20453;-66
2021/03/09 10:47:17;;;;;;;51.73;40.23;;;5.80;99.90;;;;;;5052615;28;20448;-66
2021/03/09 10:49:43;;;;;;;57.50;41.17;;;5.90;99.90;;;;;;5052008;28;20527;-66
2021/03/09 10:52:10;;;;;;;47.20;39.13;;;5.90;99.90;;;;;;5051332;28;21015;-66
2021/03/09 10:54:38;;;;;;;48.20;40.50;;;6.00;99.90;;;;;;5051991;28;20440;-67
2021/03/09 10:57:05;;;;;;;52.17;40.93;;;6.00;99.90;;;;;;5052641;28;20447;-65
2021/03/09 10:59:31;;;;;;;48.50;38.93;;;6.10;99.90;;;;;;5052146;28;20444;-67
2021/03/09 11:01:57;;;;;;;48.40;37.00;;;6.10;99.90;;;;;;5052059;28;20444;-67
2021/03/09 11:04:23;;;;;;;49.67;37.73;;;6.20;99.90;;;;;;5052126;28;20901;-67
2021/03/09 11:06:49;;;;;;;50.23;34.93;;;6.30;99.90;;;;;;5052481;28;20454;-63
2021/03/09 11:09:16;;;;;;;45.50;34.80;;;6.30;99.90;;;;;;5052282;28;20467;-63
2021/03/09 11:11:43;;;;;;;43.90;34.20;;;6.50;99.90;;;;;;5052516;28;21007;-67
2021/03/09 11:14:09;;;;;;;46.43;33.77;;;6.60;99.90;;;;;;5051869;28;20452;-67
2021/03/09 11:16:35;;;;;;;45.53;34.43;;;6.60;99.90;;;;;;5051808;28;20447;-67
2021/03/09 11:19:02;;;;;;;44.57;34.33;;;6.70;99.90;;;;;;5051659;28;20448;-67
2021/03/09 11:21:29;;;;;;;47.33;34.33;;;6.80;99.90;;;;;;5051518;28;20440;-65
2021/03/09 11:23:56;;;;;;;47.93;34.90;;;6.80;99.90;;;;;;5051476;28;20479;-66
2021/03/09 11:26:23;;;;;;;48.37;37.30;;;6.80;99.90;;;;;;5054401;28;20761;-67
2021/03/09 11:28:51;;;;;;;47.97;35.67;;;6.90;99.90;;;;;;5056002;28;20452;-65
2021/03/09 11:31:18;;;;;;;55.70;36.23;;;7.00;99.90;;;;;;5055683;28;20476;-67
2021/03/09 11:33:45;;;;;;;52.33;36.00;;;7.20;99.90;;;;;;5055263;28;20462;-67
2021/03/09 11:36:12;;;;;;;50.27;37.67;;;7.20;99.90;;;;;;5055641;28;20463;-66
2021/03/09 11:38:40;;;;;;;49.30;35.67;;;7.20;99.90;;;;;;5055186;28;20452;-66
2021/03/09 11:41:06;;;;;;;50.40;37.40;;;7.40;99.90;;;;;;5055353;28;20443;-67
2021/03/09 11:43:32;;;;;;;59.43;39.30;;;7.30;99.90;;;;;;5055379;28;20491;-67
2021/03/09 11:45:59;;;;;;;49.50;38.13;;;7.30;99.90;;;;;;5055415;28;20450;-67
2021/03/09 11:48:26;;;;;;;45.80;34.53;;;7.20;99.90;;;;;;5055512;28;20956;-66
2021/03/09 11:50:52;;;;;;;62.93;40.13;;;7.20;99.90;;;;;;5055647;28;20480;-66
2021/03/09 11:53:18;;;;;;;48.93;38.87;;;7.30;99.90;;;;;;5055002;28;20467;-67
2021/03/09 11:55:45;;;;;;;52.70;36.87;;;7.40;99.90;;;;;;5055178;28;20448;-67
2021/03/09 11:58:11;;;;;;;48.80;35.73;;;7.60;99.90;;;;;;5055305;28;20447;-67
2021/03/09 12:00:37;;;;;;;52.57;39.50;;;7.60;99.90;;;;;;5055251;28;20459;-67
2021/03/09 12:03:05;;;;;;;52.77;38.70;;;7.60;99.90;;;;;;5054858;28;20475;-67
2021/03/09 12:05:31;;;;;;;51.73;37.53;;;7.70;99.90;;;;;;5054485;28;20451;-67
2021/03/09 12:07:57;;;;;;;54.73;36.40;;;7.70;99.90;;;;;;5054525;28;20440;-67
2021/03/09 12:10:24;;;;;;;52.13;37.73;;;8.10;99.90;;;;;;5054325;28;20447;-67
2021/03/09 12:12:50;;;;;;;50.33;35.27;;;8.20;99.90;;;;;;5054181;28;20467;-65
2021/03/09 12:15:17;;;;;;;49.40;38.50;;;8.40;99.90;;;;;;5054111;28;20498;-67
2021/03/09 12:17:43;;;;;;;48.33;37.63;;;8.50;99.90;;;;;;5054069;28;20505;-67
2021/03/09 12:20:11;;;;;;;45.83;38.77;;;8.60;99.90;;;;;;5053980;28;20451;-67
2021/03/09 12:22:37;;;;;;;44.83;35.60;;;8.50;99.90;;;;;;5053884;28;20517;-67
2021/03/09 12:25:05;;;;;;;53.90;38.73;;;8.40;99.90;;;;;;5054070;28;20560;-67
2021/03/09 12:27:31;;;;;;;43.60;35.87;;;8.60;99.90;;;;;;5054314;28;20447;-66
2021/03/09 12:29:57;;;;;;;44.20;36.13;;;8.70;99.90;;;;;;5054129;28;20439;-67
2021/03/09 12:32:23;;;;;;;45.70;36.17;;;8.70;99.90;;;;;;5053862;28;20567;-67
2021/03/09 12:34:50;;;;;;;47.50;36.27;;;8.60;99.90;;;;;;5053833;28;20445;-66
2021/03/09 12:37:17;;;;;;;51.33;37.57;;;8.70;99.90;;;;;;5052889;28;20950;-67
2021/03/09 12:39:44;;;;;;;40.90;34.97;;;8.70;99.90;;;;;;5053873;28;20447;-67
2021/03/09 12:42:10;;;;;;;41.67;34.53;;;8.70;99.90;;;;;;5053497;28;20876;-67
2021/03/09 12:44:36;;;;;;;51.77;38.97;;;9.10;99.90;;;;;;5053533;28;20440;-67